createdAt,value
2023-03-10T00:00:28.591Z,93929.59
2023-03-10T00:01:34.013Z,93708.06
2023-03-10T00:02:34.260Z,93765.19
2023-03-10T00:03:31.101Z,93964.47
2023-03-10T00:04:28.279Z,93977.63
2023-03-10T00:05:25.217Z,93912.59
2023-03-10T00:06:24.757Z,93602.38
2023-03-10T00:07:21.753Z,93957.19
2023-03-10T00:08:18.516Z,93958.41
2023-03-10T00:09:15.271Z,93886.41
2023-03-10T00:10:14.438Z,93814.81
2023-03-10T00:11:12.660Z,93741.13
2023-03-10T00:12:09.620Z,93994.31
2023-03-10T00:13:06.364Z,93964.16
2023-03-10T00:14:03.167Z,93911.31
2023-03-10T00:14:59.931Z,93940.63
2023-03-10T00:15:57.033Z,93983.59
2023-03-10T00:16:53.835Z,93899.53
2023-03-10T00:17:50.702Z,93905.19
2023-03-10T00:18:48.902Z,93964.88
2023-03-10T00:19:45.745Z,93986.78
2023-03-10T00:20:42.601Z,93691.31
2023-03-10T00:21:39.461Z,93913.22
2023-03-10T00:22:38.947Z,93906.91
2023-03-10T00:23:37.442Z,93871.84
2023-03-10T00:24:34.505Z,93881.94
2023-03-10T00:25:33.771Z,93965.88
2023-03-10T00:26:30.663Z,93965.78
2023-03-10T00:27:27.457Z,93865.91
2023-03-10T00:28:26.276Z,93973.03
2023-03-10T00:29:23.184Z,93813.81
2023-03-10T00:30:20.136Z,93750.03
2023-03-10T00:31:22.647Z,93848.00
2023-03-10T00:32:19.661Z,93891.69
2023-03-10T00:33:16.589Z,93987.84
2023-03-10T00:34:13.473Z,93989.53
2023-03-10T00:35:10.246Z,93906.59
2023-03-10T00:36:13.479Z,93608.94
2023-03-10T00:37:10.320Z,93954.31
2023-03-10T00:38:07.155Z,93972.50
2023-03-10T00:39:05.421Z,93836.75
2023-03-10T00:40:02.258Z,93636.66
2023-03-10T00:41:04.360Z,93960.13
2023-03-10T00:42:01.269Z,93955.16
2023-03-10T00:42:59.496Z,93729.38
2023-03-10T00:43:57.410Z,93955.16
2023-03-10T00:44:54.233Z,93970.78
2023-03-10T00:45:51.120Z,93786.97
2023-03-10T00:46:48.062Z,93939.97
2023-03-10T00:47:44.965Z,93967.09
2023-03-10T00:48:42.257Z,93934.91
2023-03-10T00:49:39.088Z,93950.78
2023-03-10T00:50:35.895Z,93942.88
2023-03-10T00:51:33.913Z,93861.84
2023-03-10T00:52:34.279Z,93855.28
2023-03-10T00:53:31.421Z,93916.78
2023-03-10T00:54:28.254Z,93882.34
2023-03-10T00:55:25.131Z,93779.31
2023-03-10T00:56:26.160Z,93788.34
2023-03-10T00:57:22.935Z,93778.22
2023-03-10T00:58:19.697Z,93948.16
2023-03-10T00:59:16.585Z,93927.72
2023-03-10T01:00:17.964Z,93837.53
2023-03-10T01:01:34.409Z,93943.50
2023-03-10T01:02:31.240Z,93956.81
2023-03-10T01:03:29.133Z,93935.47
2023-03-10T01:04:26.067Z,93960.06
2023-03-10T01:05:22.943Z,93675.41
2023-03-10T01:06:20.091Z,93959.44
2023-03-10T01:07:16.904Z,93910.41
2023-03-10T01:08:13.719Z,93682.66
2023-03-10T01:09:10.624Z,93865.44
2023-03-10T01:10:07.772Z,93918.38
2023-03-10T01:11:04.739Z,93974.56
2023-03-10T01:12:01.475Z,93960.13
2023-03-10T01:12:58.271Z,93860.56
2023-03-10T01:13:59.771Z,93965.13
2023-03-10T01:14:57.705Z,93950.31
2023-03-10T01:15:54.588Z,93938.09
2023-03-10T01:16:51.480Z,93923.56
2023-03-10T01:17:48.366Z,93967.75
2023-03-10T01:18:45.284Z,93920.47
2023-03-10T01:19:42.023Z,93931.25
2023-03-10T01:20:41.642Z,93929.94
2023-03-10T01:21:39.429Z,93861.13
2023-03-10T01:22:36.283Z,93835.50
2023-03-10T01:23:33.107Z,93894.81
2023-03-10T01:24:30.009Z,93819.69
2023-03-10T01:25:27.569Z,93927.50
2023-03-10T01:26:24.509Z,93933.91
2023-03-10T01:27:21.282Z,93797.28
2023-03-10T01:28:19.546Z,93759.81
2023-03-10T01:29:16.393Z,93688.31
2023-03-10T01:30:13.662Z,93848.69
2023-03-10T01:31:10.537Z,93940.16
2023-03-10T01:32:07.744Z,93902.09
2023-03-10T01:33:05.088Z,93946.75
2023-03-10T01:34:01.978Z,93876.88
2023-03-10T01:34:58.758Z,93921.19
2023-03-10T01:35:55.629Z,93937.19
2023-03-10T01:36:52.408Z,93943.66
2023-03-10T01:37:49.194Z,93852.97
2023-03-10T01:38:46.748Z,93879.16
2023-03-10T01:39:43.563Z,93860.13
2023-03-10T01:40:41.431Z,93791.63
2023-03-10T01:41:40.185Z,93754.25
2023-03-10T01:42:38.128Z,93953.44
2023-03-10T01:43:43.624Z,93923.09
2023-03-10T01:44:40.387Z,93932.34
2023-03-10T01:45:37.059Z,93934.50
2023-03-10T01:46:50.548Z,93934.78
2023-03-10T01:47:47.453Z,93953.13
2023-03-10T01:48:44.330Z,93907.13
2023-03-10T01:49:46.168Z,93931.13
2023-03-10T01:50:46.983Z,93944.00
2023-03-10T01:51:48.954Z,93837.44
2023-03-10T01:52:58.221Z,93956.75
2023-03-10T01:53:55.071Z,93945.09
2023-03-10T01:54:57.880Z,93946.03
2023-03-10T01:56:00.807Z,93964.28
2023-03-10T01:56:59.031Z,93909.06
2023-03-10T01:57:57.826Z,93889.03
2023-03-10T01:58:55.169Z,93989.66
2023-03-10T01:59:52.748Z,93952.34
2023-03-10T02:00:54.161Z,93880.75
2023-03-10T02:01:52.768Z,93830.03
2023-03-10T02:02:55.703Z,93920.94
2023-03-10T02:04:00.298Z,93726.88
2023-03-10T02:04:58.365Z,93790.75
2023-03-10T02:05:59.983Z,93931.78
2023-03-10T02:06:58.004Z,93747.56
2023-03-10T02:07:56.466Z,93951.66
2023-03-10T02:09:06.161Z,93817.25
2023-03-10T02:10:04.373Z,93858.69
2023-03-10T02:11:01.831Z,93831.41
2023-03-10T02:12:00.068Z,93961.59
2023-03-10T02:12:56.867Z,93786.66
2023-03-10T02:13:55.555Z,93953.09
2023-03-10T02:14:54.022Z,93889.44
2023-03-10T02:15:51.239Z,93918.00
2023-03-10T02:16:48.207Z,93809.53
2023-03-10T02:17:45.137Z,93865.41
2023-03-10T02:18:46.056Z,93883.22
2023-03-10T02:19:55.331Z,93935.72
2023-03-10T02:21:10.749Z,93894.31
2023-03-10T02:22:11.688Z,93862.06
2023-03-10T02:23:14.280Z,93950.59
2023-03-10T02:24:39.717Z,93950.59
2023-03-10T02:25:50.527Z,93944.84
2023-03-10T02:26:59.803Z,93938.38
2023-03-10T02:27:57.767Z,93954.22
2023-03-10T02:28:59.869Z,93976.59
2023-03-10T02:29:59.703Z,93924.75
2023-03-10T02:30:57.832Z,93898.28
2023-03-10T02:31:56.982Z,93928.13
2023-03-10T02:32:59.070Z,93671.25
2023-03-10T02:33:56.809Z,93928.84
2023-03-10T02:34:53.669Z,93890.91
2023-03-10T02:35:50.975Z,93906.00
2023-03-10T02:36:48.086Z,93882.78
2023-03-10T02:37:44.996Z,93909.03
2023-03-10T02:38:41.962Z,93946.56
2023-03-10T02:39:38.721Z,93819.69
2023-03-10T02:40:49.366Z,93922.16
2023-03-10T02:41:46.718Z,93918.97
2023-03-10T02:42:43.459Z,93871.13
2023-03-10T02:43:40.340Z,93923.47
2023-03-10T02:44:40.015Z,93939.69
2023-03-10T02:45:41.295Z,93855.00
2023-03-10T02:46:38.249Z,93842.72
2023-03-10T02:47:35.091Z,93784.25
2023-03-10T02:48:35.875Z,93956.97
2023-03-10T02:49:36.363Z,93943.47
2023-03-10T02:50:38.075Z,93942.00
2023-03-10T02:51:38.669Z,93760.41
2023-03-10T02:52:50.293Z,93944.00
2023-03-10T02:53:47.389Z,93956.66
2023-03-10T02:54:44.214Z,93966.84
2023-03-10T02:55:41.275Z,93959.22
2023-03-10T02:56:38.715Z,93957.06
2023-03-10T02:57:35.460Z,93931.06
2023-03-10T02:58:32.341Z,93765.13
2023-03-10T02:59:29.152Z,93949.22
2023-03-10T03:00:25.930Z,93931.78
2023-03-10T03:01:22.912Z,93950.97
2023-03-10T03:02:19.717Z,93918.31
2023-03-10T03:03:20.340Z,93955.19
2023-03-10T03:04:17.337Z,93846.28
2023-03-10T03:05:14.377Z,93886.00
2023-03-10T03:06:11.661Z,93932.69
2023-03-10T03:07:08.456Z,93791.75
2023-03-10T03:08:07.934Z,93954.69
2023-03-10T03:09:05.354Z,93949.94
2023-03-10T03:10:08.477Z,93881.63
2023-03-10T03:11:06.040Z,93929.59
2023-03-10T03:12:03.019Z,93884.34
2023-03-10T03:12:59.928Z,93924.38
2023-03-10T03:13:56.793Z,93955.88
2023-03-10T03:14:54.138Z,93948.09
2023-03-10T03:15:51.942Z,93909.91
2023-03-10T03:16:48.823Z,93951.22
2023-03-10T03:17:45.747Z,93956.22
2023-03-10T03:18:42.632Z,93918.91
2023-03-10T03:19:39.348Z,93951.72
2023-03-10T03:20:38.257Z,93883.91
2023-03-10T03:21:35.130Z,93879.78
2023-03-10T03:22:32.040Z,93917.03
2023-03-10T03:23:28.984Z,93927.03
2023-03-10T03:24:25.792Z,93906.84
2023-03-10T03:25:25.081Z,93931.44
2023-03-10T03:26:24.803Z,93674.34
2023-03-10T03:27:21.536Z,93936.75
2023-03-10T03:28:18.352Z,93858.84
2023-03-10T03:29:17.698Z,93920.78
2023-03-10T03:30:20.982Z,93875.22
2023-03-10T03:31:23.046Z,93827.53
2023-03-10T03:32:19.852Z,93927.47
2023-03-10T03:33:16.738Z,93849.44
2023-03-10T03:34:13.764Z,93888.06
2023-03-10T03:35:17.664Z,93782.91
2023-03-10T03:36:14.583Z,93758.72
2023-03-10T03:37:11.430Z,93941.81
2023-03-10T03:38:08.557Z,93743.81
2023-03-10T03:39:08.202Z,93753.00
2023-03-10T03:40:14.801Z,93861.97
2023-03-10T03:41:11.785Z,93915.59
2023-03-10T03:42:08.654Z,93657.41
2023-03-10T03:43:05.814Z,93831.91
2023-03-10T03:44:02.723Z,93872.81
2023-03-10T03:44:59.456Z,93699.53
2023-03-10T03:45:56.715Z,93863.16
2023-03-10T03:46:53.521Z,93942.47
2023-03-10T03:47:51.260Z,93838.88
2023-03-10T03:48:48.050Z,93890.50
2023-03-10T03:49:44.829Z,93749.66
2023-03-10T03:50:41.631Z,93963.22
2023-03-10T03:51:38.417Z,93279.09
2023-03-10T03:52:35.332Z,93760.59
2023-03-10T03:53:33.911Z,93921.44
2023-03-10T03:54:30.704Z,93928.44
2023-03-10T03:55:28.942Z,93732.50
2023-03-10T03:56:25.797Z,93827.09
2023-03-10T03:57:23.653Z,93462.38
2023-03-10T03:58:20.581Z,93675.81
2023-03-10T03:59:17.334Z,93792.63
2023-03-10T04:00:25.275Z,93924.34
2023-03-10T04:01:22.131Z,93866.28
2023-03-10T04:02:19.104Z,93452.59
2023-03-10T04:03:16.060Z,93866.00
2023-03-10T04:04:12.898Z,93832.91
2023-03-10T04:05:09.880Z,93758.38
2023-03-10T04:06:08.401Z,93495.44
2023-03-10T04:07:05.255Z,93927.81
2023-03-10T04:08:02.052Z,93761.56
2023-03-10T04:08:58.935Z,93880.25
2023-03-10T04:09:55.780Z,93875.66
2023-03-10T04:10:54.657Z,93869.03
2023-03-10T04:11:51.440Z,93764.28
2023-03-10T04:12:48.270Z,93899.31
2023-03-10T04:13:45.171Z,93863.97
2023-03-10T04:14:42.040Z,93932.59
2023-03-10T04:15:38.955Z,93910.09
2023-03-10T04:16:35.941Z,93940.81
2023-03-10T04:17:32.982Z,93926.72
2023-03-10T04:18:29.904Z,93918.44
2023-03-10T04:19:26.970Z,93922.91
2023-03-10T04:20:25.208Z,93819.44
2023-03-10T04:21:22.054Z,93923.28
2023-03-10T04:22:18.901Z,93833.59
2023-03-10T04:23:16.258Z,93866.00
2023-03-10T04:24:13.172Z,93845.19
2023-03-10T04:25:10.829Z,93587.97
2023-03-10T04:26:10.959Z,93831.19
2023-03-10T04:27:09.654Z,93905.47
2023-03-10T04:28:06.562Z,93775.47
2023-03-10T04:29:03.668Z,93912.78
2023-03-10T04:30:04.810Z,93782.97
2023-03-10T04:31:01.561Z,93925.47
2023-03-10T04:32:05.250Z,93911.44
2023-03-10T04:33:03.241Z,93753.06
2023-03-10T04:34:00.149Z,93734.44
2023-03-10T04:34:56.960Z,93890.66
2023-03-10T04:35:54.473Z,93682.69
2023-03-10T04:36:51.351Z,93910.31
2023-03-10T04:37:48.265Z,93791.41
2023-03-10T04:38:45.124Z,93918.06
2023-03-10T04:39:42.034Z,93882.06
2023-03-10T04:40:39.378Z,93901.81
2023-03-10T04:41:36.914Z,93853.94
2023-03-10T04:42:33.845Z,93925.16
2023-03-10T04:43:31.344Z,93831.16
2023-03-10T04:44:31.240Z,93852.88
2023-03-10T04:45:28.604Z,93747.13
2023-03-10T04:46:25.566Z,93912.47
2023-03-10T04:47:22.724Z,93887.13
2023-03-10T04:48:19.559Z,93886.72
2023-03-10T04:49:16.494Z,93850.88
2023-03-10T04:50:17.482Z,93899.22
2023-03-10T04:51:14.364Z,93792.31
2023-03-10T04:52:12.260Z,93876.66
2023-03-10T04:53:09.147Z,93752.97
2023-03-10T04:54:05.944Z,93903.47
2023-03-10T04:55:02.776Z,93893.34
2023-03-10T04:56:01.201Z,93889.53
2023-03-10T04:56:58.042Z,93762.78
2023-03-10T04:57:54.781Z,93903.50
2023-03-10T04:58:51.825Z,93829.63
2023-03-10T04:59:48.678Z,93902.88
2023-03-10T05:01:01.893Z,93881.16
2023-03-10T05:02:00.539Z,93903.41
2023-03-10T05:02:57.328Z,93894.47
2023-03-10T05:03:54.280Z,93821.47
2023-03-10T05:04:51.105Z,93404.88
2023-03-10T05:05:48.037Z,93882.09
2023-03-10T05:06:44.807Z,93905.25
2023-03-10T05:07:42.165Z,93692.44
2023-03-10T05:08:39.060Z,93876.81
2023-03-10T05:09:37.886Z,93871.91
2023-03-10T05:10:34.951Z,93912.03
2023-03-10T05:11:32.616Z,93887.34
2023-03-10T05:12:29.525Z,93733.66
2023-03-10T05:13:26.360Z,93757.34
2023-03-10T05:14:23.153Z,93906.56
2023-03-10T05:15:20.032Z,93904.53
2023-03-10T05:16:20.345Z,93875.59
2023-03-10T05:17:17.284Z,93725.81
2023-03-10T05:18:14.136Z,93888.84
2023-03-10T05:19:10.983Z,93888.69
2023-03-10T05:20:09.633Z,93788.41
2023-03-10T05:21:06.664Z,93905.63
2023-03-10T05:22:06.057Z,93783.56
2023-03-10T05:23:02.940Z,93889.81
2023-03-10T05:23:59.804Z,93905.88
2023-03-10T05:24:56.620Z,93868.94
2023-03-10T05:25:53.516Z,93882.47
2023-03-10T05:26:50.709Z,93847.41
2023-03-10T05:27:47.654Z,93638.88
2023-03-10T05:28:44.616Z,93884.59
2023-03-10T05:29:41.479Z,93757.13
2023-03-10T05:30:38.370Z,93855.97
2023-03-10T05:31:35.424Z,93834.56
2023-03-10T05:32:35.500Z,93878.09
2023-03-10T05:33:32.606Z,93892.22
2023-03-10T05:34:30.715Z,93868.09
2023-03-10T05:35:27.477Z,93784.75
2023-03-10T05:36:24.515Z,93814.81
2023-03-10T05:37:21.403Z,93618.69
2023-03-10T05:38:18.381Z,93861.84
2023-03-10T05:39:15.225Z,93702.00
2023-03-10T05:40:20.122Z,93800.47
2023-03-10T05:41:17.045Z,93823.53
2023-03-10T05:42:13.862Z,93830.34
2023-03-10T05:43:11.498Z,93802.66
2023-03-10T05:44:08.282Z,93862.31
2023-03-10T05:45:06.308Z,93869.22
2023-03-10T05:46:03.603Z,93881.84
2023-03-10T05:47:00.581Z,93880.75
2023-03-10T05:47:59.965Z,93849.03
2023-03-10T05:48:57.696Z,93803.06
2023-03-10T05:49:54.646Z,93873.81
2023-03-10T05:50:58.391Z,93866.22
2023-03-10T05:51:55.284Z,93774.97
2023-03-10T05:52:52.214Z,93714.34
2023-03-10T05:53:49.152Z,93867.31
2023-03-10T05:54:45.984Z,93875.91
2023-03-10T05:55:42.778Z,93806.34
2023-03-10T05:56:39.838Z,93859.56
2023-03-10T05:57:37.068Z,93756.72
2023-03-10T05:58:34.025Z,93854.72
2023-03-10T05:59:30.954Z,93882.66
2023-03-10T06:00:28.100Z,93749.56
2023-03-10T06:01:24.882Z,93745.81
2023-03-10T06:02:21.666Z,93677.16
2023-03-10T06:03:20.034Z,93790.72
2023-03-10T06:04:16.916Z,93880.41
2023-03-10T06:05:13.902Z,93744.38
2023-03-10T06:06:11.641Z,93871.63
2023-03-10T06:07:08.424Z,93866.75
2023-03-10T06:08:05.771Z,93766.63
2023-03-10T06:09:03.673Z,93870.63
2023-03-10T06:10:00.609Z,93886.97
2023-03-10T06:10:58.026Z,93789.28
2023-03-10T06:11:54.858Z,93747.81
2023-03-10T06:12:51.614Z,93878.38
2023-03-10T06:13:48.649Z,93846.72
2023-03-10T06:14:48.520Z,93889.75
2023-03-10T06:15:50.912Z,93894.47
2023-03-10T06:16:51.593Z,93820.44
2023-03-10T06:17:48.529Z,93850.25
2023-03-10T06:18:45.624Z,93889.13
2023-03-10T06:19:43.076Z,93890.34
2023-03-10T06:20:40.128Z,93897.97
2023-03-10T06:21:36.927Z,93856.25
2023-03-10T06:22:33.816Z,93875.88
2023-03-10T06:23:30.657Z,93838.81
2023-03-10T06:24:28.971Z,93806.53
2023-03-10T06:25:25.763Z,93891.84
2023-03-10T06:26:22.947Z,93667.84
2023-03-10T06:27:19.812Z,93705.94
2023-03-10T06:28:16.685Z,93542.53
2023-03-10T06:29:13.438Z,93859.16
2023-03-10T06:30:10.967Z,93840.59
2023-03-10T06:31:19.847Z,93863.72
2023-03-10T06:32:16.911Z,93658.50
2023-03-10T06:33:13.867Z,93861.84
2023-03-10T06:34:10.736Z,93807.66
2023-03-10T06:35:07.960Z,93919.28
2023-03-10T06:36:05.780Z,93881.91
2023-03-10T06:37:02.716Z,93859.06
2023-03-10T06:37:59.474Z,93770.69
2023-03-10T06:38:56.641Z,93733.91
2023-03-10T06:39:53.470Z,93882.13
2023-03-10T06:40:50.597Z,93873.00
2023-03-10T06:41:47.588Z,93663.97
2023-03-10T06:42:44.655Z,93851.84
2023-03-10T06:43:41.699Z,93553.81
2023-03-10T06:44:40.142Z,93527.81
2023-03-10T06:45:37.159Z,93559.88
2023-03-10T06:46:33.989Z,93827.16
2023-03-10T06:47:30.990Z,93728.50
2023-03-10T06:48:27.816Z,93894.34
2023-03-10T06:49:30.357Z,93460.66
2023-03-10T06:50:28.489Z,93829.84
2023-03-10T06:51:26.199Z,93834.28
2023-03-10T06:52:23.159Z,93531.88
2023-03-10T06:53:22.308Z,93491.31
2023-03-10T06:54:19.323Z,93891.31
2023-03-10T06:55:17.089Z,93854.94
2023-03-10T06:56:24.080Z,93786.88
2023-03-10T06:57:21.181Z,93689.78
2023-03-10T06:58:17.961Z,93755.03
2023-03-10T06:59:15.067Z,93755.22
2023-03-10T07:00:15.816Z,93696.44
2023-03-10T07:01:31.554Z,93856.59
2023-03-10T07:02:28.428Z,93796.06
2023-03-10T07:03:26.403Z,93798.09
2023-03-10T07:04:23.268Z,93749.91
2023-03-10T07:05:23.135Z,93885.84
2023-03-10T07:06:20.909Z,93906.34
2023-03-10T07:07:17.883Z,93773.69
2023-03-10T07:08:14.709Z,93827.84
2023-03-10T07:09:11.436Z,93776.56
2023-03-10T07:10:09.094Z,93884.91
2023-03-10T07:11:06.020Z,93528.09
2023-03-10T07:12:02.991Z,93845.75
2023-03-10T07:12:59.812Z,93857.59
2023-03-10T07:13:56.904Z,93824.88
2023-03-10T07:14:53.748Z,93888.94
2023-03-10T07:15:50.786Z,93671.50
2023-03-10T07:16:47.704Z,93725.69
2023-03-10T07:17:44.776Z,93848.47
2023-03-10T07:18:41.802Z,93757.38
2023-03-10T07:19:39.039Z,93769.69
2023-03-10T07:20:38.756Z,93760.56
2023-03-10T07:21:35.668Z,93704.53
2023-03-10T07:22:32.605Z,93755.84
2023-03-10T07:23:29.469Z,93808.31
2023-03-10T07:24:26.309Z,93617.22
2023-03-10T07:25:24.890Z,93860.03
2023-03-10T07:26:21.805Z,93852.69
2023-03-10T07:27:18.596Z,93890.63
2023-03-10T07:28:15.553Z,93737.78
2023-03-10T07:29:12.476Z,93645.22
2023-03-10T07:30:10.337Z,93697.44
2023-03-10T07:31:10.469Z,93673.03
2023-03-10T07:32:07.509Z,93531.41
2023-03-10T07:33:04.664Z,93534.47
2023-03-10T07:34:02.138Z,93773.56
2023-03-10T07:35:01.985Z,93850.03
2023-03-10T07:36:00.202Z,93778.09
2023-03-10T07:36:57.163Z,93800.13
2023-03-10T07:37:53.967Z,93741.56
2023-03-10T07:38:50.932Z,93804.16
2023-03-10T07:39:47.941Z,93432.91
2023-03-10T07:40:44.831Z,93604.44
2023-03-10T07:41:44.628Z,93715.63
2023-03-10T07:42:44.765Z,93579.22
2023-03-10T07:43:41.508Z,93858.03
2023-03-10T07:44:38.262Z,93815.00
2023-03-10T07:45:35.723Z,93422.72
2023-03-10T07:46:32.640Z,93857.75
2023-03-10T07:47:29.529Z,93618.16
2023-03-10T07:48:26.445Z,93642.88
2023-03-10T07:49:23.573Z,93591.44
2023-03-10T07:50:21.941Z,93736.81
2023-03-10T07:51:19.296Z,93796.78
2023-03-10T07:52:16.520Z,93809.97
2023-03-10T07:53:15.596Z,93796.25
2023-03-10T07:54:15.011Z,93813.16
2023-03-10T07:55:12.435Z,93806.72
2023-03-10T07:56:12.191Z,93821.31
2023-03-10T07:57:09.078Z,93806.28
2023-03-10T07:58:06.304Z,93824.56
2023-03-10T07:59:03.377Z,93825.56
2023-03-10T08:00:00.339Z,93751.03
2023-03-10T08:01:00.239Z,93647.78
2023-03-10T08:01:57.026Z,93721.84
2023-03-10T08:02:53.852Z,93431.28
2023-03-10T08:03:56.698Z,93797.06
2023-03-10T08:04:54.777Z,93735.91
2023-03-10T08:05:51.858Z,93632.84
2023-03-10T08:06:48.649Z,93612.47
2023-03-10T08:07:45.467Z,93814.44
2023-03-10T08:11:22.434Z,93859.84
2023-03-10T08:12:57.392Z,93200.66
2023-03-10T08:13:54.585Z,93243.84
2023-03-10T08:15:07.906Z,93799.22
2023-03-10T08:16:05.441Z,93716.94
2023-03-10T08:17:02.653Z,93783.31
2023-03-10T08:18:00.177Z,93749.69
2023-03-10T08:18:57.132Z,93743.91
2023-03-10T08:19:54.061Z,93649.44
2023-03-10T08:20:50.904Z,93475.03
2023-03-10T08:21:47.843Z,93668.22
2023-03-10T08:22:44.815Z,93766.66
2023-03-10T08:23:41.726Z,93580.97
2023-03-10T08:24:39.311Z,93763.66
2023-03-10T08:25:38.093Z,93558.50
2023-03-10T08:26:35.584Z,93725.03
2023-03-10T08:27:36.943Z,93731.56
2023-03-10T08:28:35.349Z,93483.69
2023-03-10T08:29:32.329Z,93669.25
2023-03-10T08:30:29.346Z,93772.34
2023-03-10T08:31:26.337Z,93766.59
2023-03-10T08:32:23.285Z,93380.63
2023-03-10T08:33:22.090Z,93634.50
2023-03-10T08:34:21.949Z,93685.69
2023-03-10T08:35:19.089Z,93711.91
2023-03-10T08:36:29.288Z,93655.22
2023-03-10T08:37:26.309Z,93390.16
2023-03-10T08:38:23.262Z,93590.34
2023-03-10T08:39:20.200Z,93759.41
2023-03-10T08:40:17.294Z,93483.59
2023-03-10T08:41:22.814Z,93771.09
2023-03-10T08:42:19.701Z,93608.28
2023-03-10T08:43:30.058Z,93713.13
2023-03-10T08:44:27.832Z,93404.22
2023-03-10T08:45:25.022Z,93590.75
2023-03-10T08:46:24.770Z,93507.53
2023-03-10T08:47:30.451Z,93393.97
2023-03-10T08:48:31.126Z,93661.75
2023-03-10T08:49:28.465Z,93744.88
2023-03-10T08:50:25.390Z,93655.00
2023-03-10T08:51:26.325Z,93735.13
2023-03-10T08:52:24.444Z,93748.69
2023-03-10T08:53:21.373Z,93641.47
2023-03-10T08:54:22.690Z,93608.59
2023-03-10T08:55:19.574Z,93629.75
2023-03-10T08:56:18.386Z,93589.13
2023-03-10T08:57:15.248Z,93611.09
2023-03-10T08:58:12.090Z,93685.06
2023-03-10T08:59:11.991Z,93728.88
2023-03-10T09:00:12.504Z,93517.97
2023-03-10T09:01:09.464Z,93717.16
2023-03-10T09:02:07.106Z,93647.53
2023-03-10T09:03:08.981Z,93564.41
2023-03-10T09:04:08.511Z,93610.38
2023-03-10T09:05:05.668Z,93689.00
2023-03-10T09:06:03.875Z,93631.56
2023-03-10T09:07:00.715Z,93522.13
2023-03-10T09:07:57.518Z,93623.97
2023-03-10T09:08:54.730Z,93725.25
2023-03-10T09:09:52.328Z,93661.59
2023-03-10T09:10:52.021Z,93713.44
2023-03-10T09:11:51.320Z,93742.66
2023-03-10T09:12:48.577Z,93605.25
2023-03-10T09:13:45.681Z,93655.56
2023-03-10T09:14:42.452Z,93716.34
2023-03-10T09:15:41.512Z,93735.09
2023-03-10T09:16:40.422Z,93655.13
2023-03-10T09:17:40.523Z,93634.72
2023-03-10T09:18:37.553Z,93558.75
2023-03-10T09:19:34.355Z,93634.91
2023-03-10T09:20:31.145Z,93615.38
2023-03-10T09:21:33.131Z,93443.59
2023-03-10T09:22:30.490Z,93535.63
2023-03-10T09:23:27.876Z,93232.91
2023-03-10T09:24:25.820Z,93607.25
2023-03-10T09:25:23.237Z,93611.66
2023-03-10T09:26:20.856Z,93681.50
2023-03-10T09:27:17.647Z,93632.91
2023-03-10T09:28:17.376Z,93671.25
2023-03-10T09:29:15.495Z,93692.81
2023-03-10T09:30:13.156Z,93643.75
2023-03-10T09:31:16.903Z,93692.75
2023-03-10T09:32:16.026Z,93663.91
2023-03-10T09:33:19.559Z,93629.22
2023-03-10T09:34:16.366Z,93630.00
2023-03-10T09:35:13.169Z,93611.28
2023-03-10T09:36:10.370Z,93667.88
2023-03-10T09:37:08.568Z,93688.25
2023-03-10T09:38:05.554Z,93638.31
2023-03-10T09:39:02.981Z,93580.53
2023-03-10T09:39:59.811Z,93698.91
2023-03-10T09:41:08.775Z,93677.28
2023-03-10T09:42:26.091Z,93650.19
2023-03-10T09:43:39.136Z,93682.81
2023-03-10T09:44:43.534Z,93689.81
2023-03-10T09:45:46.290Z,93671.94
2023-03-10T09:47:03.248Z,93672.88
2023-03-10T09:48:26.514Z,93630.97
2023-03-10T09:49:55.342Z,93663.69
2023-03-10T09:50:56.600Z,93668.81
2023-03-10T09:51:53.595Z,93528.88
2023-03-10T09:53:07.348Z,93493.69
2023-03-10T09:54:46.887Z,93478.25
2023-03-10T09:55:48.666Z,93612.63
2023-03-10T09:56:45.834Z,93679.63
2023-03-10T09:57:43.457Z,93525.47
2023-03-10T09:58:46.097Z,93655.63
2023-03-10T09:59:47.921Z,93449.44
2023-03-10T10:00:45.386Z,93624.03
2023-03-10T10:01:47.469Z,93683.13
2023-03-10T10:02:49.919Z,93655.13
2023-03-10T10:03:54.718Z,93557.28
2023-03-10T10:04:57.383Z,93654.47
2023-03-10T10:05:55.948Z,93332.69
2023-03-10T10:06:54.313Z,93655.41
2023-03-10T10:07:57.205Z,93599.41
2023-03-10T10:09:04.789Z,93568.81
2023-03-10T10:10:19.102Z,93650.19
2023-03-10T10:11:17.930Z,93650.72
2023-03-10T10:12:23.658Z,93577.72
2023-03-10T10:13:25.309Z,93576.44
2023-03-10T10:14:29.849Z,93662.31
2023-03-10T10:15:35.326Z,93149.28
2023-03-10T10:16:47.778Z,93642.59
2023-03-10T10:18:02.684Z,93581.03
2023-03-10T10:19:20.505Z,93465.34
2023-03-10T10:20:25.857Z,93654.78
2023-03-10T10:21:46.337Z,93608.66
2023-03-10T10:22:45.566Z,93559.81
2023-03-10T10:23:54.291Z,93596.63
2023-03-10T10:25:09.485Z,93600.59
2023-03-10T10:26:15.944Z,93543.59
2023-03-10T10:27:18.001Z,93659.78
2023-03-10T10:28:34.055Z,93645.59
2023-03-10T10:29:37.322Z,93654.75
2023-03-10T10:30:39.909Z,93449.25
2023-03-10T10:31:36.969Z,93560.75
2023-03-10T10:32:33.742Z,93664.63
2023-03-10T10:34:07.212Z,93625.53
2023-03-10T10:35:15.594Z,93488.81
2023-03-10T10:36:18.280Z,93634.44
2023-03-10T10:37:23.808Z,93621.31
2023-03-10T10:38:28.769Z,93589.50
2023-03-10T10:39:33.015Z,93625.84
2023-03-10T10:40:34.404Z,93640.09
2023-03-10T10:41:34.530Z,93601.03
2023-03-10T10:42:34.502Z,93575.38
2023-03-10T10:43:39.710Z,93643.69
2023-03-10T10:44:42.926Z,93647.84
2023-03-10T10:45:40.392Z,93472.91
2023-03-10T10:46:37.366Z,93492.84
2023-03-10T10:47:52.543Z,93469.81
2023-03-10T10:48:52.235Z,93450.75
2023-03-10T10:49:49.157Z,93406.00
2023-03-10T10:50:54.361Z,93601.38
2023-03-10T10:52:19.186Z,93550.94
2023-03-10T10:53:24.657Z,93628.03
2023-03-10T10:54:44.698Z,93615.00
2023-03-10T10:55:45.205Z,93640.59
2023-03-10T10:56:53.405Z,93157.03
2023-03-10T10:58:01.415Z,93630.25
2023-03-10T10:59:20.667Z,93601.16
2023-03-10T11:00:32.202Z,93572.75
2023-03-10T11:01:59.854Z,93536.97
2023-03-10T11:02:57.101Z,93373.41
2023-03-10T11:04:06.772Z,93506.75
2023-03-10T11:05:12.689Z,93602.59
2023-03-10T11:06:18.509Z,93607.28
2023-03-10T11:07:27.169Z,93556.63
2023-03-10T11:08:27.079Z,93592.91
2023-03-10T11:09:24.020Z,93399.19
2023-03-10T11:10:28.114Z,93451.38
2023-03-10T11:11:39.977Z,93401.91
2023-03-10T11:13:05.702Z,93500.47
2023-03-10T11:14:29.857Z,93591.47
2023-03-10T11:16:11.349Z,93579.66
2023-03-10T11:17:26.087Z,93580.22
2023-03-10T11:18:36.605Z,93568.03
2023-03-10T11:19:49.961Z,93432.28
2023-03-10T11:21:00.557Z,93497.53
2023-03-10T11:22:13.649Z,93444.44
2023-03-10T11:23:24.132Z,93564.13
2023-03-10T11:24:52.706Z,93560.44
2023-03-10T11:26:16.736Z,93532.03
2023-03-10T11:27:36.730Z,93557.44
2023-03-10T11:29:13.781Z,93209.06
2023-03-10T11:30:20.231Z,93479.03
2023-03-10T11:31:20.170Z,93553.91
2023-03-10T11:32:41.977Z,93561.31
2023-03-10T11:33:50.578Z,93567.72
2023-03-10T11:34:53.961Z,93539.09
2023-03-10T11:36:01.110Z,93331.38
2023-03-10T11:36:58.368Z,93547.72
2023-03-10T11:38:15.241Z,93542.13
2023-03-10T11:39:25.222Z,93493.06
2023-03-10T11:40:52.758Z,93551.44
2023-03-10T11:42:03.122Z,93363.19
2023-03-10T11:43:21.757Z,93492.88
2023-03-10T11:45:00.345Z,92988.50
2023-03-10T11:46:03.959Z,93535.59
2023-03-10T11:47:19.431Z,93520.28
2023-03-10T11:48:53.336Z,93266.06